Time;durP1;ratioP1;P1;durP2;ratioP2;P2;SDS_P1;SDS_P2;PMS_P1;PMS_P2;Temp;Humidity;BMP_temperature;BMP_pressure;BME280_temperature;BME280_humidity;BME280_pressure;Samples;Min_cycle;Max_cycle;Signal;HPM_P1;HPM_P2
2021/04/26 00:00:45;;;;;;;7.55;2.78;;;20.90;73.20;;;;;;5079872;28;20031;-75
2021/04/26 00:03:11;;;;;;;4.50;3.03;;;20.90;73.20;;;;;;5081460;28;20028;-74
2021/04/26 00:05:38;;;;;;;5.45;3.25;;;20.90;73.10;;;;;;5085004;28;20675;-74
2021/04/26 00:08:05;;;;;;;5.40;2.88;;;20.90;73.00;;;;;;5080581;28;20013;-74
2021/04/26 00:10:31;;;;;;;6.50;3.47;;;20.90;73.00;;;;;;5083367;28;20028;-75
2021/04/26 00:12:58;;;;;;;8.88;3.60;;;20.90;72.80;;;;;;5087863;28;20455;-75
2021/04/26 00:15:30;;;;;;;6.88;4.00;;;20.90;72.90;;;;;;5091049;28;20061;-75
2021/04/26 00:17:57;;;;;;;7.63;3.72;;;20.90;73.00;;;;;;5089928;28;20023;-76
2021/04/26 00:20:27;;;;;;;4.65;3.45;;;20.80;73.00;;;;;;5090610;28;20042;-74
2021/04/26 00:23:33;;;;;;;6.60;3.03;;;20.80;73.10;;;;;;5089984;28;20391;-74
2021/04/26 00:26:39;;;;;;;9.80;3.75;;;20.80;73.10;;;;;;5088458;28;20452;-75
2021/04/26 00:29:06;;;;;;;5.47;3.38;;;20.80;73.20;;;;;;5090223;28;20020;-76
2021/04/26 00:31:32;;;;;;;7.97;4.50;;;20.80;73.30;;;;;;5089605;28;20127;-75
2021/04/26 00:33:59;;;;;;;6.90;3.45;;;20.80;73.30;;;;;;5090283;28;20069;-75
2021/04/26 00:36:26;;;;;;;8.23;3.33;;;20.80;73.30;;;;;;5087776;28;20049;-75
2021/04/26 00:38:52;;;;;;;4.10;3.40;;;20.80;73.20;;;;;;5087299;28;20028;-74
2021/04/26 00:41:19;;;;;;;5.40;3.28;;;20.80;73.90;;;;;;5088151;28;20125;-76
2021/04/26 00:43:46;;;;;;;4.38;3.72;;;20.80;73.20;;;;;;5087521;28;20162;-75
2021/04/26 00:46:15;;;;;;;6.32;3.47;;;20.80;73.40;;;;;;5089605;28;20023;-78
2021/04/26 00:48:42;;;;;;;7.10;3.20;;;20.80;73.50;;;;;;5089369;28;20028;-76
2021/04/26 00:51:09;;;;;;;6.47;2.85;;;20.80;73.40;;;;;;5088308;28;20070;-75
2021/04/26 00:53:37;;;;;;;7.18;2.75;;;20.80;73.40;;;;;;5073473;28;20024;-75
2021/04/26 00:56:04;;;;;;;5.32;2.78;;;20.80;73.40;;;;;;5088240;28;20027;-75
2021/04/26 00:58:31;;;;;;;8.13;2.90;;;20.80;73.40;;;;;;5089949;28;20012;-75
2021/04/26 01:00:57;;;;;;;4.05;2.33;;;20.80;73.50;;;;;;5086150;28;20024;-75
2021/04/26 01:03:24;;;;;;;6.13;1.95;;;20.80;73.50;;;;;;5089184;28;20023;-76
2021/04/26 01:05:51;;;;;;;5.88;2.08;;;20.80;73.60;;;;;;5088811;28;20023;-76
2021/04/26 01:08:17;;;;;;;5.00;2.38;;;20.80;73.60;;;;;;5088645;28;20020;-76
2021/04/26 01:10:44;;;;;;;4.18;2.20;;;20.80;73.60;;;;;;5086214;28;20027;-76
2021/04/26 01:13:23;;;;;;;2.85;1.83;;;20.80;73.50;;;;;;5088300;28;20055;-75
2021/04/26 01:16:05;;;;;;;5.05;2.22;;;20.70;73.40;;;;;;5087261;28;20481;-75
2021/04/26 01:18:56;;;;;;;4.13;1.98;;;20.70;73.30;;;;;;5085677;28;20024;-74
2021/04/26 01:22:19;;;;;;;5.10;2.35;;;20.70;73.20;;;;;;5070893;28;20837;-75
2021/04/26 01:25:08;;;;;;;3.38;2.03;;;20.70;73.10;;;;;;5007071;28;20025;-74
2021/04/26 01:27:46;;;;;;;3.70;2.08;;;20.70;73.00;;;;;;5004407;28;20045;-74
2021/04/26 01:30:25;;;;;;;3.33;2.20;;;20.70;73.10;;;;;;5070495;28;20048;-75
2021/04/26 01:32:58;;;;;;;4.60;2.10;;;20.60;73.10;;;;;;5089842;28;20031;-74
2021/04/26 01:35:25;;;;;;;2.53;2.10;;;20.60;73.20;;;;;;5085665;28;20359;-75
2021/04/26 01:38:05;;;;;;;4.57;2.33;;;20.60;73.20;;;;;;5088607;28;20031;-74
2021/04/26 01:40:32;;;;;;;3.20;2.20;;;20.60;73.20;;;;;;5084416;28;20020;-75
2021/04/26 01:43:01;;;;;;;6.05;2.53;;;20.60;73.30;;;;;;5087363;28;20027;-75
2021/04/26 01:45:28;;;;;;;3.30;2.47;;;20.60;73.30;;;;;;5088859;28;20471;-74
2021/04/26 01:47:58;;;;;;;4.53;2.08;;;20.60;73.40;;;;;;5088293;28;20020;-75
2021/04/26 01:50:26;;;;;;;4.57;2.47;;;20.60;73.40;;;;;;5086597;28;20524;-74
2021/04/26 01:52:52;;;;;;;5.70;2.50;;;20.60;73.50;;;;;;5085882;28;20016;-75
2021/04/26 01:55:21;;;;;;;5.25;2.92;;;20.60;73.60;;;;;;5089025;28;20051;-74
2021/04/26 01:57:49;;;;;;;4.30;2.55;;;20.60;73.70;;;;;;5087747;28;20017;-75
2021/04/26 02:00:21;;;;;;;4.43;2.20;;;20.50;73.70;;;;;;5087028;28;20035;-74
2021/04/26 02:02:48;;;;;;;3.33;2.20;;;20.60;73.90;;;;;;5088820;28;20055;-75
2021/04/26 02:05:16;;;;;;;4.28;2.60;;;20.60;73.90;;;;;;5087956;28;20008;-74
2021/04/26 02:07:46;;;;;;;2.63;1.92;;;20.50;73.80;;;;;;5088277;28;20069;-75
2021/04/26 02:10:13;;;;;;;4.30;2.35;;;20.60;73.90;;;;;;5085689;28;20017;-76
2021/04/26 02:12:42;;;;;;;4.60;2.33;;;20.60;73.70;;;;;;5085648;28;20030;-75
2021/04/26 02:15:12;;;;;;;4.05;2.45;;;20.50;73.60;;;;;;5085694;28;20008;-74
2021/04/26 02:17:40;;;;;;;2.58;2.13;;;20.60;73.70;;;;;;5087998;28;20462;-75
2021/04/26 02:20:08;;;;;;;2.90;2.28;;;20.50;73.70;;;;;;5088334;28;20020;-75
2021/04/26 02:22:36;;;;;;;4.15;2.20;;;20.50;73.80;;;;;;5087593;28;20024;-74
2021/04/26 02:25:05;;;;;;;3.40;2.20;;;20.60;74.00;;;;;;5085930;28;20073;-74
2021/04/26 02:27:32;;;;;;;5.28;2.90;;;20.50;73.90;;;;;;5086486;28;20013;-74
2021/04/26 02:29:59;;;;;;;4.15;2.42;;;20.50;74.00;;;;;;5091120;28;20051;-74
2021/04/26 02:32:34;;;;;;;3.88;2.40;;;20.50;74.00;;;;;;5089154;28;20526;-74
2021/04/26 02:35:03;;;;;;;8.98;2.67;;;20.50;74.00;;;;;;5092533;28;20022;-76
2021/04/26 02:37:55;;;;;;;3.10;2.10;;;20.50;74.10;;;;;;5085992;28;20017;-75
2021/04/26 02:40:24;;;;;;;3.45;2.47;;;20.60;74.20;;;;;;5090618;28;20024;-74
2021/04/26 02:42:55;;;;;;;4.00;2.30;;;20.50;74.10;;;;;;5090566;28;20022;-74
2021/04/26 02:45:28;;;;;;;3.97;2.15;;;20.50;74.20;;;;;;5088059;28;20020;-74
2021/04/26 02:47:56;;;;;;;2.45;1.70;;;20.50;74.20;;;;;;5090424;28;20020;-74
2021/04/26 02:50:26;;;;;;;5.28;1.50;;;20.50;74.20;;;;;;5072849;28;20039;-74
2021/04/26 02:52:54;;;;;;;2.45;1.55;;;20.50;74.20;;;;;;5089739;28;20470;-74
2021/04/26 02:55:22;;;;;;;2.60;1.70;;;20.50;74.10;;;;;;5092214;28;20028;-73
2021/04/26 02:57:52;;;;;;;4.55;2.25;;;20.50;74.10;;;;;;5086010;28;20015;-74
2021/04/26 03:00:20;;;;;;;2.75;1.70;;;20.50;74.00;;;;;;5089522;28;20081;-77
2021/04/26 03:02:47;;;;;;;1.42;1.30;;;20.50;74.00;;;;;;5091166;28;20040;-74
2021/04/26 03:05:15;;;;;;;3.80;1.52;;;20.50;73.90;;;;;;5092116;28;20024;-75
2021/04/26 03:07:42;;;;;;;2.45;1.67;;;20.50;73.80;;;;;;5090205;28;20032;-73
2021/04/26 03:10:13;;;;;;;2.70;1.35;;;20.50;73.80;;;;;;5088747;28;20030;-73
2021/04/26 03:12:42;;;;;;;3.45;2.30;;;20.50;73.90;;;;;;5092099;28;20016;-75
2021/04/26 03:15:13;;;;;;;1.38;1.13;;;20.40;73.80;;;;;;5088927;28;20020;-74
2021/04/26 03:17:41;;;;;;;1.65;1.30;;;20.50;73.70;;;;;;5086390;28;20140;-73
2021/04/26 03:20:14;;;;;;;2.58;1.45;;;20.40;73.60;;;;;;5090673;28;20020;-75
2021/04/26 03:22:42;;;;;;;3.33;1.65;;;20.50;73.60;;;;;;5090675;28;20026;-75
2021/04/26 03:25:10;;;;;;;2.78;1.40;;;20.40;73.50;;;;;;5089595;28;20085;-75
2021/04/26 03:27:37;;;;;;;3.20;1.60;;;20.50;73.50;;;;;;5088831;28;20012;-74
2021/04/26 03:30:05;;;;;;;2.00;1.15;;;20.40;73.30;;;;;;5091310;28;20023;-76
2021/04/26 03:32:33;;;;;;;4.18;2.35;;;20.40;73.20;;;;;;5085761;28;20400;-76
2021/04/26 03:35:01;;;;;;;13.20;8.73;;;20.40;73.20;;;;;;5091624;28;20073;-74
2021/04/26 03:37:28;;;;;;;9.52;8.02;;;20.40;73.10;;;;;;5089942;28;20020;-75
2021/04/26 03:39:55;;;;;;;10.32;7.70;;;20.40;73.10;;;;;;5088075;28;20047;-74
2021/04/26 03:42:21;;;;;;;6.00;5.25;;;20.40;73.10;;;;;;5090989;28;20044;-75
2021/04/26 03:44:50;;;;;;;5.40;4.90;;;20.40;73.00;;;;;;5090686;28;20049;-74
2021/04/26 03:47:16;;;;;;;7.50;4.00;;;20.30;73.20;;;;;;5090034;28;20024;-75
2021/04/26 03:49:43;;;;;;;6.30;3.35;;;20.40;73.00;;;;;;5090171;28;20038;-74
2021/04/26 03:52:10;;;;;;;2.67;2.15;;;20.40;72.90;;;;;;5091195;28;20035;-75
2021/04/26 03:54:37;;;;;;;4.50;3.85;;;20.40;72.90;;;;;;5085445;28;20035;-75
2021/04/26 03:57:04;;;;;;;2.55;2.35;;;20.30;72.90;;;;;;5091106;28;20028;-74
2021/04/26 03:59:31;;;;;;;4.13;1.73;;;20.30;72.90;;;;;;5090704;28;20016;-73
2021/04/26 04:01:58;;;;;;;2.67;1.40;;;20.30;73.00;;;;;;5088970;28;20422;-73
2021/04/26 04:04:24;;;;;;;2.00;1.67;;;20.30;73.00;;;;;;5089921;28;20024;-74
2021/04/26 04:06:51;;;;;;;1.77;1.27;;;20.30;72.90;;;;;;5090078;28;20103;-74
2021/04/26 04:09:18;;;;;;;1.83;1.33;;;20.30;72.80;;;;;;5091155;28;20145;-72
2021/04/26 04:11:45;;;;;;;3.17;1.52;;;20.30;72.80;;;;;;5089559;28;20467;-73
2021/04/26 04:14:11;;;;;;;1.70;1.02;;;20.30;72.70;;;;;;5090757;28;20093;-74
2021/04/26 04:16:38;;;;;;;1.90;1.15;;;20.30;72.70;;;;;;5070041;28;20024;-74
2021/04/26 04:19:05;;;;;;;8.05;3.17;;;20.20;72.70;;;;;;5089487;28;20352;-75
2021/04/26 04:21:32;;;;;;;7.28;5.32;;;20.20;72.70;;;;;;5090801;28;20166;-75
2021/04/26 04:23:59;;;;;;;8.27;6.05;;;20.30;72.70;;;;;;5089673;28;20012;-74
2021/04/26 04:26:26;;;;;;;5.60;4.35;;;20.20;72.60;;;;;;5090678;28;20012;-75
2021/04/26 04:28:53;;;;;;;5.35;3.58;;;20.30;73.40;;;;;;5087995;28;20083;-75
2021/04/26 04:31:19;;;;;;;4.22;3.00;;;20.20;72.60;;;;;;5090565;28;20573;-74
2021/04/26 04:33:46;;;;;;;4.38;3.13;;;20.30;72.70;;;;;;5089533;28;20023;-73
2021/04/26 04:36:12;;;;;;;15.77;12.35;;;20.20;72.70;;;;;;5090288;28;20024;-74
2021/04/26 04:38:39;;;;;;;16.77;12.65;;;20.30;72.70;;;;;;5087921;28;20505;-72
2021/04/26 04:41:05;;;;;;;13.60;10.82;;;20.20;72.70;;;;;;5088544;28;20017;-71
2021/04/26 04:43:33;;;;;;;12.00;7.68;;;20.20;72.70;;;;;;5089171;28;20016;-72
2021/04/26 04:45:59;;;;;;;7.72;5.97;;;20.20;72.60;;;;;;5089159;28;20535;-73
2021/04/26 04:48:46;;;;;;;7.43;5.60;;;20.20;72.60;;;;;;5090375;28;20024;-74
2021/04/26 04:51:52;;;;;;;6.78;4.75;;;20.20;72.60;;;;;;5088114;28;20028;-73
2021/04/26 04:54:58;;;;;;;24.35;20.15;;;20.20;72.50;;;;;;5088593;28;20012;-75
2021/04/26 04:57:24;;;;;;;18.70;16.10;;;20.20;72.40;;;;;;5089416;28;20494;-74
2021/04/26 04:59:51;;;;;;;15.68;11.57;;;20.10;72.40;;;;;;5088501;28;20024;-73
2021/04/26 05:02:17;;;;;;;10.23;7.93;;;20.10;72.30;;;;;;5089849;28;20031;-74
2021/04/26 05:04:44;;;;;;;12.63;6.97;;;20.10;72.20;;;;;;5085809;28;20490;-73
2021/04/26 05:07:10;;;;;;;9.98;6.55;;;20.10;72.20;;;;;;5089120;28;20016;-73
2021/04/26 05:09:37;;;;;;;6.90;5.05;;;20.10;72.30;;;;;;5089933;28;20055;-74
2021/04/26 05:12:04;;;;;;;7.80;3.72;;;20.10;72.30;;;;;;5086960;28;20031;-74
2021/04/26 05:14:31;;;;;;;6.32;3.42;;;20.10;72.40;;;;;;5070045;28;20020;-74
2021/04/26 05:17:37;;;;;;;4.57;3.15;;;20.10;72.40;;;;;;5087314;28;20008;-75
2021/04/26 05:20:05;;;;;;;6.05;2.63;;;20.10;72.40;;;;;;5088546;28;20111;-74
2021/04/26 05:22:34;;;;;;;4.82;2.83;;;20.00;72.50;;;;;;5089595;28;20024;-73
2021/04/26 05:25:06;;;;;;;5.47;2.70;;;20.00;72.50;;;;;;5086502;28;20024;-74
2021/04/26 05:27:32;;;;;;;9.25;5.28;;;20.00;72.60;;;;;;5088911;28;20493;-73
2021/04/26 05:29:59;;;;;;;7.47;4.72;;;20.00;72.70;;;;;;5087972;28;20016;-73
2021/04/26 05:33:05;;;;;;;7.95;4.40;;;20.00;72.80;;;;;;5066784;28;20058;-72
2021/04/26 05:35:31;;;;;;;8.65;4.07;;;20.00;72.80;;;;;;5075560;28;20127;-73
2021/04/26 05:38:09;;;;;;;7.18;4.10;;;20.00;72.90;;;;;;5083014;28;20028;-73
2021/04/26 05:40:36;;;;;;;4.18;3.28;;;20.00;73.00;;;;;;5084065;28;20024;-74
2021/04/26 05:43:02;;;;;;;6.25;3.13;;;20.00;73.10;;;;;;5084567;28;20367;-74
2021/04/26 05:45:29;;;;;;;6.38;3.05;;;20.00;73.00;;;;;;5086254;28;20352;-75
2021/04/26 05:47:56;;;;;;;4.35;3.20;;;20.00;73.00;;;;;;5086528;28;20390;-75
2021/04/26 05:50:22;;;;;;;4.30;2.90;;;20.00;73.00;;;;;;5067945;28;20035;-74
2021/04/26 05:52:49;;;;;;;4.47;2.40;;;19.90;72.90;;;;;;5070915;28;20058;-74
2021/04/26 05:55:16;;;;;;;5.88;2.47;;;19.90;72.90;;;;;;5082886;28;20020;-74
2021/04/26 05:57:43;;;;;;;6.15;3.13;;;19.90;72.80;;;;;;5085213;28;20059;-73
2021/04/26 06:00:10;;;;;;;5.05;2.40;;;19.90;72.80;;;;;;5084626;28;20020;-73
2021/04/26 06:02:36;;;;;;;5.25;2.78;;;19.90;72.80;;;;;;5087366;28;20032;-77
2021/04/26 06:05:03;;;;;;;5.00;2.78;;;19.90;72.80;;;;;;5084485;28;20382;-73
2021/04/26 06:07:30;;;;;;;3.47;2.25;;;19.90;72.90;;;;;;5082678;28;20016;-73
2021/04/26 06:09:56;;;;;;;5.72;2.50;;;19.90;72.80;;;;;;5085250;28;20016;-74
2021/04/26 06:12:23;;;;;;;5.13;2.35;;;19.90;72.80;;;;;;5080571;28;20055;-73
2021/04/26 06:14:50;;;;;;;4.43;2.10;;;19.90;72.80;;;;;;5085984;28;20012;-74
2021/04/26 06:17:16;;;;;;;6.70;2.58;;;19.90;72.70;;;;;;5084325;28;20196;-75
2021/04/26 06:19:43;;;;;;;5.22;2.40;;;19.90;72.70;;;;;;5085717;28;20024;-75
2021/04/26 06:22:10;;;;;;;9.00;3.55;;;19.90;72.70;;;;;;5067365;28;20107;-74
2021/04/26 06:24:36;;;;;;;5.75;2.33;;;19.90;72.60;;;;;;5085904;28;20077;-76
2021/04/26 06:27:03;;;;;;;4.00;2.22;;;19.90;72.60;;;;;;5086078;28;20533;-74
2021/04/26 06:29:29;;;;;;;3.08;2.45;;;19.90;72.60;;;;;;5084181;28;20103;-73
2021/04/26 06:31:56;;;;;;;6.63;2.05;;;19.90;72.60;;;;;;5083734;28;20480;-73
2021/04/26 06:34:22;;;;;;;5.10;2.20;;;19.90;72.60;;;;;;5083381;28;20024;-74
2021/04/26 06:36:49;;;;;;;7.55;2.58;;;19.90;72.70;;;;;;5082344;28;20020;-75
2021/04/26 06:39:15;;;;;;;3.25;1.80;;;19.90;72.80;;;;;;5086989;28;20044;-73
2021/04/26 06:41:42;;;;;;;4.32;2.00;;;19.90;73.50;;;;;;5088933;28;20073;-73
2021/04/26 06:44:08;;;;;;;7.97;4.15;;;19.90;72.90;;;;;;5087861;28;20839;-72
2021/04/26 06:46:35;;;;;;;9.40;6.88;;;19.90;73.10;;;;;;5085622;28;20019;-73
2021/04/26 06:49:02;;;;;;;7.70;6.28;;;19.90;73.20;;;;;;5084684;28;20025;-72
2021/04/26 06:51:28;;;;;;;9.18;5.68;;;20.00;73.40;;;;;;5087103;28;20024;-72
2021/04/26 06:53:55;;;;;;;7.65;3.92;;;19.90;73.30;;;;;;5088313;28;20031;-72
2021/04/26 06:56:21;;;;;;;8.68;4.25;;;20.00;73.40;;;;;;5087098;28;20138;-75
2021/04/26 06:58:48;;;;;;;5.50;3.70;;;20.00;73.60;;;;;;5088215;28;20502;-72
2021/04/26 07:01:14;;;;;;;9.07;3.25;;;20.00;73.70;;;;;;5085137;28;20020;-74
2021/04/26 07:03:41;;;;;;;6.68;2.63;;;20.00;73.70;;;;;;5087464;28;20024;-73
2021/04/26 07:06:07;;;;;;;3.90;2.65;;;20.00;73.80;;;;;;5088098;28;20479;-73
2021/04/26 07:08:34;;;;;;;10.38;3.33;;;20.10;73.90;;;;;;5087007;28;20020;-74
2021/04/26 07:11:00;;;;;;;3.95;2.28;;;20.10;74.00;;;;;;5087332;28;20089;-74
2021/04/26 07:13:27;;;;;;;6.65;3.05;;;20.10;74.10;;;;;;5084239;28;20048;-73
2021/04/26 07:15:54;;;;;;;6.28;3.60;;;20.10;74.10;;;;;;5089545;28;20401;-73
2021/04/26 07:18:20;;;;;;;5.85;4.28;;;20.10;74.20;;;;;;5090879;28;20004;-72
2021/04/26 07:20:47;;;;;;;4.82;2.80;;;20.20;74.40;;;;;;5091459;28;20048;-73
2021/04/26 07:23:13;;;;;;;7.45;3.78;;;20.20;74.40;;;;;;5084661;28;20039;-73
2021/04/26 07:25:40;;;;;;;7.57;2.92;;;20.30;74.50;;;;;;5081273;28;20383;-73
2021/04/26 07:28:06;;;;;;;5.75;2.55;;;20.30;74.60;;;;;;5083494;28;20027;-72
2021/04/26 07:30:33;;;;;;;5.30;2.80;;;20.40;74.70;;;;;;5083613;28;20059;-73
2021/04/26 07:32:59;;;;;;;3.08;2.13;;;20.40;74.70;;;;;;5084634;28;20066;-73
2021/04/26 07:35:26;;;;;;;6.22;3.25;;;20.40;74.70;;;;;;5083329;28;20025;-72
2021/04/26 07:37:53;;;;;;;4.15;2.58;;;20.50;74.80;;;;;;5083506;28;20525;-73
2021/04/26 07:40:19;;;;;;;4.18;2.05;;;20.50;74.80;;;;;;5083878;28;20032;-73
2021/04/26 07:42:46;;;;;;;7.75;2.75;;;20.60;74.80;;;;;;5085938;28;20536;-72
2021/04/26 07:45:19;;;;;;;5.40;2.20;;;20.60;74.80;;;;;;5084168;28;20016;-73
2021/04/26 07:47:52;;;;;;;8.77;2.70;;;20.70;74.80;;;;;;5080488;28;20115;-73
2021/04/26 07:50:19;;;;;;;3.47;2.67;;;20.70;74.70;;;;;;5083421;28;20071;-72
2021/04/26 07:52:45;;;;;;;3.70;2.60;;;20.70;74.60;;;;;;5085543;28;20021;-72
2021/04/26 07:55:12;;;;;;;4.60;2.63;;;20.80;74.60;;;;;;5090042;28;20021;-72
2021/04/26 07:57:39;;;;;;;6.80;3.00;;;20.80;74.60;;;;;;5081276;28;20028;-72
2021/04/26 08:00:07;;;;;;;4.07;3.00;;;20.90;74.60;;;;;;5082833;28;20073;-71
2021/04/26 08:02:34;;;;;;;8.63;3.45;;;20.80;74.50;;;;;;5085053;28;20506;-72
2021/04/26 08:05:01;;;;;;;5.88;2.63;;;20.80;74.30;;;;;;5081666;28;20099;-72
2021/04/26 08:07:27;;;;;;;3.20;2.42;;;20.90;74.20;;;;;;5084156;28;20021;-72
2021/04/26 08:09:54;;;;;;;5.57;2.75;;;20.90;74.10;;;;;;5080978;28;20759;-72
2021/04/26 08:12:20;;;;;;;3.67;2.72;;;20.90;73.90;;;;;;5082970;28;20066;-72
2021/04/26 08:14:48;;;;;;;8.00;2.40;;;20.90;73.90;;;;;;5085108;28;20028;-72
2021/04/26 08:17:15;;;;;;;2.97;2.50;;;21.00;73.80;;;;;;5081359;28;20111;-72
2021/04/26 08:19:41;;;;;;;6.22;4.05;;;21.00;73.70;;;;;;5084629;28;20024;-72
2021/04/26 08:22:12;;;;;;;3.83;3.10;;;21.00;73.60;;;;;;5081425;28;20042;-73
2021/04/26 08:24:38;;;;;;;4.70;4.25;;;21.00;73.50;;;;;;5080867;28;20393;-71
2021/04/26 08:27:06;;;;;;;6.65;4.55;;;21.10;73.50;;;;;;5083695;28;20094;-72
2021/04/26 08:29:32;;;;;;;7.30;4.22;;;21.10;73.20;;;;;;5084083;28;20074;-71
2021/04/26 08:31:59;;;;;;;9.65;3.28;;;21.10;73.00;;;;;;5085963;28;20048;-72
2021/04/26 08:34:25;;;;;;;5.82;3.47;;;21.20;72.80;;;;;;5086896;28;20023;-71
2021/04/26 08:36:52;;;;;;;4.60;3.08;;;21.20;72.70;;;;;;5081056;28;20016;-72
2021/04/26 08:39:19;;;;;;;4.63;3.35;;;21.20;72.40;;;;;;5083521;28;20016;-71
2021/04/26 08:41:46;;;;;;;6.05;2.50;;;21.20;72.30;;;;;;5081899;28;20035;-70
2021/04/26 08:44:13;;;;;;;4.55;2.90;;;21.30;72.30;;;;;;5080042;28;20066;-71
2021/04/26 08:46:46;;;;;;;3.58;2.40;;;21.30;72.10;;;;;;5081763;28;20044;-71
2021/04/26 08:49:16;;;;;;;4.32;2.88;;;21.30;72.00;;;;;;5082236;28;20028;-71
2021/04/26 08:51:43;;;;;;;7.75;2.63;;;21.30;71.90;;;;;;5083763;28;20085;-71
2021/04/26 08:54:14;;;;;;;6.45;2.90;;;21.30;71.70;;;;;;5077763;28;20016;-71
2021/04/26 08:56:40;;;;;;;4.90;2.17;;;21.30;71.60;;;;;;5081538;28;20052;-71
2021/04/26 08:59:07;;;;;;;4.00;2.50;;;21.40;71.50;;;;;;5082879;28;20024;-71
2021/04/26 09:01:34;;;;;;;3.40;2.80;;;21.40;71.40;;;;;;5078909;28;20162;-71
2021/04/26 09:04:11;;;;;;;3.10;1.85;;;21.40;71.80;;;;;;5080812;28;20551;-71
2021/04/26 09:06:59;;;;;;;4.47;2.20;;;21.40;70.90;;;;;;5079283;28;20020;-71
2021/04/26 09:09:45;;;;;;;4.25;2.03;;;21.50;71.00;;;;;;5079938;28;20063;-71
2021/04/26 09:12:31;;;;;;;3.13;1.92;;;21.50;70.80;;;;;;5081359;28;20032;-70
2021/04/26 09:15:04;;;;;;;4.57;2.45;;;21.50;70.70;;;;;;5079780;28;20461;-71
2021/04/26 09:17:36;;;;;;;5.82;1.88;;;21.50;70.50;;;;;;5081348;28;20019;-71
2021/04/26 09:20:15;;;;;;;4.63;2.15;;;21.60;70.30;;;;;;5078885;28;20028;-71
2021/04/26 09:22:42;;;;;;;3.63;1.65;;;21.50;70.20;;;;;;5078194;28;20038;-71
2021/04/26 09:25:30;;;;;;;12.95;11.57;;;21.50;70.10;;;;;;5082876;28;20031;-71
2021/04/26 09:28:07;;;;;;;8.88;6.57;;;21.50;70.10;;;;;;5068151;28;20394;-70
2021/04/26 09:30:42;;;;;;;6.00;4.85;;;21.60;69.80;;;;;;5082534;28;20566;-71
2021/04/26 09:33:28;;;;;;;7.28;4.07;;;21.60;69.50;;;;;;5081427;28;20027;-72
2021/04/26 09:36:14;;;;;;;8.13;3.80;;;21.60;69.10;;;;;;5074731;28;20024;-71
2021/04/26 09:38:46;;;;;;;5.35;2.72;;;21.60;68.90;;;;;;5078723;28;20395;-70
2021/04/26 09:41:14;;;;;;;4.43;2.63;;;21.60;68.90;;;;;;5079084;28;20080;-71
2021/04/26 09:43:48;;;;;;;7.57;2.65;;;21.60;68.90;;;;;;5082274;28;20063;-71
2021/04/26 09:46:16;;;;;;;7.82;3.15;;;21.60;68.70;;;;;;5081894;28;20046;-71
2021/04/26 09:48:43;;;;;;;9.05;2.53;;;21.60;68.70;;;;;;5082197;28;20026;-70
2021/04/26 09:51:20;;;;;;;4.78;2.33;;;21.60;68.80;;;;;;5079885;28;20020;-70
2021/04/26 09:53:55;;;;;;;6.22;2.60;;;21.60;68.90;;;;;;5080609;28;20123;-70
2021/04/26 09:56:32;;;;;;;6.72;3.75;;;21.60;69.60;;;;;;5080509;28;20540;-70
2021/04/26 09:59:02;;;;;;;11.48;4.25;;;21.60;69.00;;;;;;5081008;28;20035;-71
2021/04/26 10:01:30;;;;;;;9.13;4.18;;;21.60;69.00;;;;;;5077605;28;20009;-71
2021/04/26 10:03:57;;;;;;;6.22;3.63;;;21.60;69.10;;;;;;5080498;28;20025;-70
2021/04/26 10:06:25;;;;;;;5.90;2.75;;;21.60;69.10;;;;;;5080502;28;20027;-70
2021/04/26 10:09:04;;;;;;;8.75;2.38;;;21.70;69.30;;;;;;5083065;28;20466;-71
2021/04/26 10:11:34;;;;;;;5.40;1.85;;;21.60;69.20;;;;;;5085730;28;20398;-71
2021/04/26 10:14:02;;;;;;;6.13;3.63;;;21.60;69.20;;;;;;5081769;28;20061;-72
2021/04/26 10:16:54;;;;;;;10.65;3.15;;;21.70;69.30;;;;;;5082189;28;20024;-73
2021/04/26 10:19:32;;;;;;;6.15;2.55;;;21.70;69.30;;;;;;5078830;28;20016;-72
2021/04/26 10:22:00;;;;;;;8.00;2.20;;;21.60;69.40;;;;;;5083502;28;20023;-73
2021/04/26 10:24:29;;;;;;;8.13;2.38;;;21.70;69.40;;;;;;5082614;28;20109;-73
2021/04/26 10:26:55;;;;;;;3.55;2.35;;;21.70;69.40;;;;;;5082307;28;20091;-72
2021/04/26 10:29:25;;;;;;;9.15;1.67;;;21.70;69.30;;;;;;5083464;28;20016;-74
2021/04/26 10:32:14;;;;;;;2.33;1.50;;;21.70;69.30;;;;;;5081224;28;20496;-75
2021/04/26 10:34:44;;;;;;;4.22;1.80;;;21.60;69.10;;;;;;5080760;28;20054;-74
2021/04/26 10:37:17;;;;;;;4.65;1.88;;;21.70;69.20;;;;;;5081742;28;20045;-76
2021/04/26 10:40:06;;;;;;;4.60;1.88;;;21.70;69.20;;;;;;5080923;28;20024;-74
2021/04/26 10:42:34;;;;;;;4.50;2.08;;;21.70;69.20;;;;;;5081868;28;20056;-73
2021/04/26 10:45:24;;;;;;;3.58;2.67;;;21.70;69.20;;;;;;5080522;28;20012;-74
2021/04/26 10:47:57;;;;;;;2.88;1.70;;;21.70;69.20;;;;;;5080311;28;20021;-74
2021/04/26 10:50:24;;;;;;;6.25;1.88;;;21.70;69.10;;;;;;5079613;28;20043;-76
2021/04/26 10:52:53;;;;;;;4.82;2.88;;;21.60;69.00;;;;;;5086246;28;20016;-73
2021/04/26 10:55:20;;;;;;;4.35;1.60;;;21.60;69.10;;;;;;5087009;28;20031;-73
2021/04/26 10:57:51;;;;;;;6.93;1.85;;;21.60;69.00;;;;;;5084135;28;21991;-74
2021/04/26 11:00:26;;;;;;;11.25;1.98;;;21.60;69.10;;;;;;5087078;28;20047;-75
2021/04/26 11:03:18;;;;;;;4.60;1.88;;;21.60;69.10;;;;;;5077061;28;20507;-71
2021/04/26 11:05:46;;;;;;;6.15;2.10;;;21.60;69.20;;;;;;5077111;28;20120;-73
2021/04/26 11:08:33;;;;;;;5.13;2.17;;;21.60;69.20;;;;;;5089500;28;20083;-74
2021/04/26 11:14:02;;;;;;;4.93;2.08;;;21.60;69.30;;;;;;5081788;28;20040;-72
2021/04/26 11:16:39;;;;;;;6.43;1.98;;;21.50;69.20;;;;;;5068878;28;20037;-77
2021/04/26 11:19:11;;;;;;;48.28;41.47;;;21.60;69.30;;;;;;5080832;28;20101;-75
2021/04/26 11:21:49;;;;;;;17.73;12.35;;;21.60;69.30;;;;;;5078782;28;20051;-71
2021/04/26 11:24:25;;;;;;;16.27;13.05;;;21.60;69.40;;;;;;5081624;28;20057;-74
2021/04/26 11:27:15;;;;;;;8.75;6.93;;;21.60;69.50;;;;;;5081020;28;20107;-74
2021/04/26 11:29:45;;;;;;;6.30;4.50;;;21.60;69.60;;;;;;5079245;28;20028;-75
2021/04/26 11:32:16;;;;;;;11.00;4.47;;;21.60;69.70;;;;;;5081163;28;20040;-74
2021/04/26 11:35:00;;;;;;;5.00;2.90;;;21.60;69.70;;;;;;5079672;28;20017;-75
2021/04/26 11:37:28;;;;;;;5.20;2.55;;;21.70;69.70;;;;;;5084328;28;20034;-75
2021/04/26 11:39:55;;;;;;;6.30;3.20;;;21.80;69.60;;;;;;5083553;28;20016;-74
2021/04/26 11:42:25;;;;;;;2.20;2.00;;;21.90;69.40;;;;;;5084037;28;20534;-74
2021/04/26 11:44:53;;;;;;;5.35;3.00;;;21.90;69.10;;;;;;5078304;28;20024;-75
2021/04/26 11:47:21;;;;;;;4.82;2.78;;;22.10;68.90;;;;;;5080690;28;20028;-77
2021/04/26 11:49:51;;;;;;;4.25;2.08;;;22.20;68.40;;;;;;5078957;28;20490;-76
2021/04/26 11:52:19;;;;;;;3.35;1.88;;;22.30;67.90;;;;;;5084504;28;20039;-75
2021/04/26 11:54:51;;;;;;;4.38;1.70;;;22.40;67.60;;;;;;5076485;28;20040;-75
2021/04/26 11:57:21;;;;;;;3.38;2.70;;;22.50;67.30;;;;;;5083621;28;20069;-73
2021/04/26 11:59:56;;;;;;;3.85;1.90;;;22.60;67.10;;;;;;5087608;28;20033;-72
2021/04/26 12:03:11;;;;;;;5.15;1.83;;;22.60;66.90;;;;;;5077922;28;20044;-71
2021/04/26 12:06:17;;;;;;;4.90;2.40;;;22.60;66.70;;;;;;5082036;28;20055;-72
2021/04/26 12:09:27;;;;;;;2.65;2.00;;;22.60;66.40;;;;;;5081010;28;20058;-73
2021/04/26 12:12:39;;;;;;;6.57;2.35;;;22.60;66.10;;;;;;5079263;28;20089;-73
2021/04/26 12:15:47;;;;;;;6.32;1.80;;;22.60;66.00;;;;;;5082632;28;20439;-74
2021/04/26 12:18:53;;;;;;;6.18;2.55;;;22.50;66.20;;;;;;5078080;28;20021;-73
2021/04/26 12:21:59;;;;;;;4.50;2.22;;;22.50;65.90;;;;;;5080719;28;20031;-72
2021/04/26 12:25:05;;;;;;;9.43;2.97;;;22.40;66.30;;;;;;5083109;28;20027;-73
2021/04/26 12:27:59;;;;;;;4.38;2.30;;;22.40;66.30;;;;;;5079774;28;20013;-71
2021/04/26 12:30:27;;;;;;;6.72;2.90;;;22.40;66.60;;;;;;5078262;28;20533;-71
2021/04/26 12:32:57;;;;;;;9.00;3.42;;;22.30;66.80;;;;;;5078389;28;20098;-71
2021/04/26 12:35:29;;;;;;;7.82;6.20;;;22.30;67.10;;;;;;5078081;28;20479;-71
2021/04/26 12:37:59;;;;;;;9.05;4.93;;;22.30;67.30;;;;;;5080808;28;20025;-71
2021/04/26 12:40:35;;;;;;;10.35;4.30;;;22.30;67.50;;;;;;5079534;28;20581;-71
2021/04/26 12:43:12;;;;;;;4.47;2.97;;;22.20;67.50;;;;;;5079529;28;20029;-71
2021/04/26 12:45:41;;;;;;;6.22;2.70;;;22.20;67.60;;;;;;5078631;28;20027;-71
2021/04/26 12:48:15;;;;;;;9.55;2.90;;;22.30;67.70;;;;;;5080153;28;20032;-71
2021/04/26 12:50:45;;;;;;;7.85;2.70;;;22.20;67.60;;;;;;5076544;28;20036;-71
2021/04/26 12:53:32;;;;;;;4.18;2.45;;;22.30;67.60;;;;;;5078449;28;20479;-70
2021/04/26 12:56:04;;;;;;;3.75;2.17;;;22.40;67.40;;;;;;5081415;28;20020;-70
2021/04/26 12:58:33;;;;;;;4.55;2.53;;;22.30;67.10;;;;;;5081528;28;20020;-70
2021/04/26 13:01:29;;;;;;;6.05;2.58;;;22.30;67.00;;;;;;5079894;28;20108;-71
2021/04/26 13:04:05;;;;;;;4.07;2.67;;;22.30;67.00;;;;;;5081062;28;20101;-70
2021/04/26 13:06:42;;;;;;;5.25;2.60;;;22.30;67.00;;;;;;5080070;28;20035;-70
2021/04/26 13:09:13;;;;;;;9.07;5.03;;;22.30;67.10;;;;;;5080999;28;20024;-70
2021/04/26 13:11:51;;;;;;;9.20;5.07;;;22.30;67.10;;;;;;5079472;28;20149;-70